Temp: 9.4°C   Baro: 1006.0mb
  Wind: 4.0mph   Dir: S (191°)
  Rain: 0.2mm (0.0mm/hr)
  Sun: 0W/m2  Humidity: 92%

Historic data

Bath Spa Weather Station Historical Data
Daily Summary for October 28, 2022 Units:  Both    English   Metric
Daily Weekly Monthly Yearly Custom
  High: Low: Average:
Temperature: 63.2 °F /  17.3 °C 54 °F /  12.2 °C 59.7 °F /  15.4 °C
Dew Point: 58.6 °F /  14.8 °C 51.1 °F /  10.6 °C 54.3 °F /  12.4 °C
Humidity: 91% 70.3% 83%
Wind Speed: 11.1mph /  17.9km/h - 4.8mph /  7.7km/h
Wind Gust: 22mph /  35.4km/h - -
Wind- - South
Pressure: 30.08 in /  1018.5 hPa 29.78 in /  1008.4 hPa -
Precipitation: 0.02 in /  0.51 mm    
Historical Graphs
 
 
Tabular Data for October 28, 2022
Time Temperature Dew Point Pressure Wind Wind Speed Wind Gust Humidity Rainfall Rate (Hourly) solar
00:09 62.2 °F /  16.8 °C 58.3 °F /  14.6 °C 29.88in /  1011.7hPa SSE 2.1mph /  3.4km/h 9mph /  14.5km/h 87% 0.00in /  0mm 0 W/m2
00:14 62.2 °F /  16.8 °C 58.3 °F /  14.6 °C 29.88in /  1011.7hPa SSE 2.2mph /  3.5km/h 5mph /  8km/h 87% 0.00in /  0mm 0 W/m2
00:19 62.1 °F /  16.7 °C 58.2 °F /  14.6 °C 29.88in /  1011.7hPa SE 2.8mph /  4.5km/h 5mph /  8km/h 87% 0.00in /  0mm 0 W/m2
00:24 62.1 °F /  16.7 °C 58.5 °F /  14.7 °C 29.88in /  1011.7hPa SSE 2.9mph /  4.7km/h 6mph /  9.7km/h 88% 0.00in /  0mm 0 W/m2
00:29 62.1 °F /  16.7 °C 58.5 °F /  14.7 °C 29.88in /  1011.7hPa SSE 1.9mph /  3.1km/h 5mph /  8km/h 88% 0.00in /  0mm 0 W/m2
00:34 62 °F /  16.7 °C 58.4 °F /  14.7 °C 29.88in /  1011.7hPa South 3.2mph /  5.1km/h 9mph /  14.5km/h 88% 0.00in /  0mm 0 W/m2
00:39 62.1 °F /  16.7 °C 58.5 °F /  14.7 °C 29.88in /  1011.7hPa SSE 4mph /  6.4km/h 9mph /  14.5km/h 88% 0.00in /  0mm 0 W/m2
00:44 62.1 °F /  16.7 °C 58.5 °F /  14.7 °C 29.87in /  1011.4hPa SSE 2.8mph /  4.5km/h 7mph /  11.3km/h 88% 0.00in /  0mm 0 W/m2
00:49 61.9 °F /  16.6 °C 58.3 °F /  14.6 °C 29.87in /  1011.4hPa SE 3mph /  4.8km/h 6mph /  9.7km/h 88% 0.00in /  0mm 0 W/m2
00:54 61.7 °F /  16.5 °C 58.1 °F /  14.5 °C 29.87in /  1011.4hPa SE 3.7mph /  6km/h 8mph /  12.9km/h 88% 0.00in /  0mm 0 W/m2
00:59 61.5 °F /  16.4 °C 57.9 °F /  14.4 °C 29.87in /  1011.4hPa SE 2.3mph /  3.7km/h 8mph /  12.9km/h 88% 0.00in /  0mm 0 W/m2
01:04 61.4 °F /  16.3 °C 57.8 °F /  14.3 °C 29.87in /  1011.4hPa SSE 3.2mph /  5.1km/h 5mph /  8km/h 88% 0.00in /  0mm 0 W/m2
01:09 61.5 °F /  16.4 °C 57.9 °F /  14.4 °C 29.88in /  1011.7hPa SSE 3.8mph /  6.1km/h 9mph /  14.5km/h 88% 0.00in /  0mm 0 W/m2
01:14 61.5 °F /  16.4 °C 57.9 °F /  14.4 °C 29.88in /  1011.7hPa SSE 3.2mph /  5.1km/h 7mph /  11.3km/h 88% 0.00in /  0mm 0 W/m2
01:19 61.5 °F /  16.4 °C 58 °F /  14.4 °C 29.87in /  1011.4hPa SSE 7.6mph /  12.2km/h 14mph /  22.5km/h 88.2% 0.00in /  0mm 0 W/m2
01:24 61.7 °F /  16.5 °C 58.5 °F /  14.7 °C 29.87in /  1011.4hPa South 9.2mph /  14.8km/h 17mph /  27.4km/h 89% 0.00in /  0mm 0 W/m2
01:29 61.9 °F /  16.6 °C 58.4 °F /  14.7 °C 29.87in /  1011.4hPa South 5.6mph /  9km/h 17mph /  27.4km/h 88.2% 0.00in /  0mm 0 W/m2
01:34 61.9 °F /  16.6 °C 58.3 °F /  14.6 °C 29.87in /  1011.4hPa SSE 5.7mph /  9.2km/h 11mph /  17.7km/h 88% 0.00in /  0mm 0 W/m2
01:39 61.7 °F /  16.5 °C 58.1 °F /  14.5 °C 29.87in /  1011.4hPa South 6.6mph /  10.6km/h 14mph /  22.5km/h 88% 0.00in /  0mm 0 W/m2
01:44 61.8 °F /  16.6 °C 58.2 °F /  14.6 °C 29.87in /  1011.4hPa SSE 6.1mph /  9.8km/h 13mph /  20.9km/h 88% 0.00in /  0mm 0 W/m2
01:49 61.8 °F /  16.6 °C 58.2 °F /  14.6 °C 29.87in /  1011.4hPa SSE 6.6mph /  10.6km/h 15mph /  24.1km/h 88% 0.01in /  0.25mm 0 W/m2
01:54 61.6 °F /  16.4 °C 58 °F /  14.4 °C 29.86in /  1011.1hPa SSE 5.5mph /  8.9km/h 10mph /  16.1km/h 88% 0.01in /  0.25mm 0 W/m2
01:59 61.5 °F /  16.4 °C 57.9 °F /  14.4 °C 29.86in /  1011.1hPa South 5.6mph /  9km/h 10mph /  16.1km/h 88% 0.01in /  0.25mm 0 W/m2
02:04 61.3 °F /  16.3 °C 57.7 °F /  14.3 °C 29.86in /  1011.1hPa South 5.2mph /  8.4km/h 10mph /  16.1km/h 88% 0.01in /  0.25mm 0 W/m2
02:09 61.4 °F /  16.3 °C 57.8 °F /  14.3 °C 29.86in /  1011.1hPa SSE 4mph /  6.4km/h 9mph /  14.5km/h 88% 0.01in /  0.25mm 0 W/m2
02:14 61.3 °F /  16.3 °C 57.7 °F /  14.3 °C 29.85in /  1010.7hPa SSE 3.2mph /  5.1km/h 9mph /  14.5km/h 88% 0.01in /  0.25mm 0 W/m2
02:19 61.3 °F /  16.3 °C 57.7 °F /  14.3 °C 29.85in /  1010.7hPa SE 3.7mph /  6km/h 7mph /  11.3km/h 88% 0.01in /  0.25mm 0 W/m2
02:24 61.3 °F /  16.3 °C 57.7 °F /  14.3 °C 29.85in /  1010.7hPa SSE 3.2mph /  5.1km/h 8mph /  12.9km/h 88% 0.01in /  0.25mm 0 W/m2
02:29 61.3 °F /  16.3 °C 57.7 °F /  14.3 °C 29.85in /  1010.7hPa SSE 4.7mph /  7.6km/h 10mph /  16.1km/h 88% 0.01in /  0.25mm 0 W/m2
02:34 61.3 °F /  16.3 °C 57.7 °F /  14.3 °C 29.85in /  1010.7hPa SSE 6mph /  9.7km/h 17mph /  27.4km/h 88% 0.01in /  0.25mm 0 W/m2
02:39 61.3 °F /  16.3 °C 57.7 °F /  14.3 °C 29.84in /  1010.4hPa SSE 4.7mph /  7.6km/h 9mph /  14.5km/h 88% 0.01in /  0.25mm 0 W/m2
02:44 61.2 °F /  16.2 °C 57.6 °F /  14.2 °C 29.84in /  1010.4hPa SE 5.8mph /  9.3km/h 10mph /  16.1km/h 88% 0.01in /  0.25mm 0 W/m2
02:49 61.2 °F /  16.2 °C 57.6 °F /  14.2 °C 29.83in /  1010hPa SE 5mph /  8km/h 11mph /  17.7km/h 88% 0.01in /  0.25mm 0 W/m2
02:54 61.1 °F /  16.2 °C 57.5 °F /  14.2 °C 29.83in /  1010hPa SSE 5.4mph /  8.7km/h 11mph /  17.7km/h 88% 0.00in /  0mm 0 W/m2
02:59 61 °F /  16.1 °C 57.4 °F /  14.1 °C 29.83in /  1010hPa SSE 6.4mph /  10.3km/h 15mph /  24.1km/h 88% 0.00in /  0mm 0 W/m2
03:04 61 °F /  16.1 °C 57.4 °F /  14.1 °C 29.83in /  1010hPa SE 6.3mph /  10.1km/h 15mph /  24.1km/h 88% 0.00in /  0mm 0 W/m2
03:09 61 °F /  16.1 °C 57.4 °F /  14.1 °C 29.82in /  1009.7hPa SE 10.3mph /  16.6km/h 16mph /  25.7km/h 88% 0.00in /  0mm 0 W/m2
03:14 61.2 °F /  16.2 °C 57.3 °F /  14.1 °C 29.82in /  1009.7hPa SSE 7.2mph /  11.6km/h 16mph /  25.7km/h 87.3% 0.00in /  0mm 0 W/m2
03:19 61.2 °F /  16.2 °C 57.2 °F /  14 °C 29.82in /  1009.7hPa SSE 7.8mph /  12.6km/h 15mph /  24.1km/h 87% 0.00in /  0mm 0 W/m2
03:24 61.2 °F /  16.2 °C 57 °F /  13.9 °C 29.82in /  1009.7hPa SE 7.2mph /  11.6km/h 10mph /  16.1km/h 86.2% 0.00in /  0mm 0 W/m2
03:29 61.1 °F /  16.2 °C 56.9 °F /  13.8 °C 29.82in /  1009.7hPa SSE 5.1mph /  8.2km/h 12mph /  19.3km/h 86% 0.00in /  0mm 0 W/m2
03:34 61.2 °F /  16.2 °C 57 °F /  13.9 °C 29.81in /  1009.4hPa SSE 6.1mph /  9.8km/h 13mph /  20.9km/h 86% 0.00in /  0mm 0 W/m2
03:39 61.3 °F /  16.3 °C 57 °F /  13.9 °C 29.81in /  1009.4hPa SE 5.5mph /  8.9km/h 11mph /  17.7km/h 85.8% 0.00in /  0mm 0 W/m2
03:44 61.2 °F /  16.2 °C 56.7 °F /  13.7 °C 29.81in /  1009.4hPa SE 5mph /  8km/h 11mph /  17.7km/h 85% 0.00in /  0mm 0 W/m2
03:49 61.1 °F /  16.2 °C 56.6 °F /  13.7 °C 29.81in /  1009.4hPa SE 3.7mph /  6km/h 9mph /  14.5km/h 85% 0.00in /  0mm 0 W/m2
03:54 61 °F /  16.1 °C 56.5 °F /  13.6 °C 29.80in /  1009hPa SE 4.6mph /  7.4km/h 9mph /  14.5km/h 85% 0.00in /  0mm 0 W/m2
03:59 61 °F /  16.1 °C 56.5 °F /  13.6 °C 29.80in /  1009hPa SE 4mph /  6.4km/h 10mph /  16.1km/h 85% 0.00in /  0mm 0 W/m2
04:04 61 °F /  16.1 °C 56.5 °F /  13.6 °C 29.80in /  1009hPa SE 5.2mph /  8.4km/h 11mph /  17.7km/h 85% 0.00in /  0mm 0 W/m2
04:09 61.1 °F /  16.2 °C 56.3 °F /  13.5 °C 29.80in /  1009hPa SE 4.1mph /  6.6km/h 10mph /  16.1km/h 84.2% 0.00in /  0mm 0 W/m2
04:14 61.2 °F /  16.2 °C 56.4 °F /  13.6 °C 29.80in /  1009hPa SE 6.2mph /  10km/h 10mph /  16.1km/h 84% 0.00in /  0mm 0 W/m2
04:19 61.3 °F /  16.3 °C 56.1 °F /  13.4 °C 29.79in /  1008.7hPa SE 5.1mph /  8.2km/h 11mph /  17.7km/h 83% 0.00in /  0mm 0 W/m2
04:24 61.5 °F /  16.4 °C 56.3 °F /  13.5 °C 29.79in /  1008.7hPa SE 5mph /  8km/h 11mph /  17.7km/h 83% 0.00in /  0mm 0 W/m2
04:29 61.5 °F /  16.4 °C 56.2 °F /  13.4 °C 29.79in /  1008.7hPa SSE 4.4mph /  7.1km/h 10mph /  16.1km/h 82.8% 0.00in /  0mm 0 W/m2
04:34 61.6 °F /  16.4 °C 56 °F /  13.3 °C 29.79in /  1008.7hPa SE 5.8mph /  9.3km/h 11mph /  17.7km/h 82% 0.00in /  0mm 0 W/m2
04:39 61.5 °F /  16.4 °C 55.9 °F /  13.3 °C 29.78in /  1008.4hPa ESE 4.4mph /  7.1km/h 10mph /  16.1km/h 82% 0.00in /  0mm 0 W/m2
04:44 61.5 °F /  16.4 °C 55.9 °F /  13.3 °C 29.78in /  1008.4hPa ESE 4.2mph /  6.8km/h 8mph /  12.9km/h 82% 0.00in /  0mm 0 W/m2
04:49 61.5 °F /  16.4 °C 55.9 °F /  13.3 °C 29.78in /  1008.4hPa SE 4.4mph /  7.1km/h 9mph /  14.5km/h 82% 0.00in /  0mm 0 W/m2
04:54 61.5 °F /  16.4 °C 56 °F /  13.3 °C 29.79in /  1008.7hPa SE 5.6mph /  9km/h 10mph /  16.1km/h 82.4% 0.00in /  0mm 0 W/m2
04:59 61.5 °F /  16.4 °C 56.3 °F /  13.5 °C 29.79in /  1008.7hPa SE 4.5mph /  7.2km/h 9mph /  14.5km/h 83% 0.00in /  0mm 0 W/m2
05:04 61.5 °F /  16.4 °C 56.3 °F /  13.5 °C 29.79in /  1008.7hPa ESE 3.4mph /  5.5km/h 9mph /  14.5km/h 83% 0.00in /  0mm 0 W/m2
05:09 61.7 °F /  16.5 °C 56.6 °F /  13.7 °C 29.79in /  1008.7hPa SSE 6.2mph /  10km/h 12mph /  19.3km/h 83.2% 0.00in /  0mm 0 W/m2
05:14 61.9 °F /  16.6 °C 57 °F /  13.9 °C 29.79in /  1008.7hPa SE 4.8mph /  7.7km/h 13mph /  20.9km/h 84% 0.00in /  0mm 0 W/m2
05:19 61.9 °F /  16.6 °C 57 °F /  13.9 °C 29.79in /  1008.7hPa SE 4mph /  6.4km/h 10mph /  16.1km/h 84% 0.00in /  0mm 0 W/m2
05:24 61.9 °F /  16.6 °C 57 °F /  13.9 °C 29.78in /  1008.4hPa ESE 5.3mph /  8.5km/h 12mph /  19.3km/h 84% 0.00in /  0mm 0 W/m2
05:29 61.9 °F /  16.6 °C 57.2 °F /  14 °C 29.78in /  1008.4hPa ESE 5.4mph /  8.7km/h 12mph /  19.3km/h 84.4% 0.00in /  0mm 0 W/m2
05:34 61.9 °F /  16.6 °C 57.4 °F /  14.1 °C 29.78in /  1008.4hPa East 4mph /  6.4km/h 9mph /  14.5km/h 85% 0.00in /  0mm 0 W/m2
05:39 62 °F /  16.7 °C 57.5 °F /  14.2 °C 29.80in /  1009hPa SSE 4.7mph /  7.6km/h 10mph /  16.1km/h 85% 0.00in /  0mm 0 W/m2
05:44 62.1 °F /  16.7 °C 57.6 °F /  14.2 °C 29.80in /  1009hPa SSE 5.2mph /  8.4km/h 13mph /  20.9km/h 85% 0.00in /  0mm 0 W/m2
05:49 62.5 °F /  16.9 °C 58 °F /  14.4 °C 29.80in /  1009hPa South 10.1mph /  16.3km/h 22mph /  35.4km/h 85% 0.00in /  0mm 0 W/m2
05:54 63 °F /  17.2 °C 58.5 °F /  14.7 °C 29.80in /  1009hPa South 6.4mph /  10.3km/h 20mph /  32.2km/h 85% 0.00in /  0mm 0 W/m2
05:59 63.1 °F /  17.3 °C 58.5 °F /  14.7 °C 29.80in /  1009hPa SSE 7mph /  11.3km/h 21mph /  33.8km/h 84.8% 0.00in /  0mm 0 W/m2
06:04 63.2 °F /  17.3 °C 58.4 °F /  14.7 °C 29.80in /  1009hPa South 7.8mph /  12.6km/h 15mph /  24.1km/h 84% 0.00in /  0mm 0 W/m2
06:09 63.1 °F /  17.3 °C 58.3 °F /  14.6 °C 29.80in /  1009hPa SSE 6.3mph /  10.1km/h 20mph /  32.2km/h 84% 0.00in /  0mm 0 W/m2
06:14 63.2 °F /  17.3 °C 58.4 °F /  14.7 °C 29.80in /  1009hPa South 10.1mph /  16.3km/h 20mph /  32.2km/h 84% 0.00in /  0mm 0 W/m2
06:19 63.2 °F /  17.3 °C 58.4 °F /  14.7 °C 29.80in /  1009hPa SSE 6.6mph /  10.6km/h 20mph /  32.2km/h 84% 0.00in /  0mm 0 W/m2
06:24 63.1 °F /  17.3 °C 58.3 °F /  14.6 °C 29.80in /  1009hPa SSE 8.6mph /  13.8km/h 19mph /  30.6km/h 84% 0.00in /  0mm 0 W/m2
06:29 63.1 °F /  17.3 °C 58.3 °F /  14.6 °C 29.79in /  1008.7hPa South 8mph /  12.9km/h 19mph /  30.6km/h 84% 0.00in /  0mm 0 W/m2
06:34 63.1 °F /  17.3 °C 58.4 °F /  14.7 °C 29.79in /  1008.7hPa South 6mph /  9.7km/h 19mph /  30.6km/h 84.2% 0.00in /  0mm 0 W/m2
06:39 63.1 °F /  17.3 °C 58.6 °F /  14.8 °C 29.79in /  1008.7hPa South 5.4mph /  8.7km/h 12mph /  19.3km/h 85% 0.00in /  0mm 0 W/m2
06:44 63.1 °F /  17.3 °C 58.6 °F /  14.8 °C 29.79in /  1008.7hPa South 4.2mph /  6.8km/h 12mph /  19.3km/h 85% 0.00in /  0mm 0 W/m2
06:49 63 °F /  17.2 °C 58.5 °F /  14.7 °C 29.79in /  1008.7hPa South 3.3mph /  5.3km/h 15mph /  24.1km/h 85% 0.00in /  0mm 0 W/m2
06:54 63 °F /  17.2 °C 58.5 °F /  14.7 °C 29.79in /  1008.7hPa South 2.7mph /  4.3km/h 15mph /  24.1km/h 85% 0.00in /  0mm 0 W/m2
06:59 63 °F /  17.2 °C 58.5 °F /  14.7 °C 29.80in /  1009hPa SSW 7.8mph /  12.6km/h 13mph /  20.9km/h 85% 0.00in /  0mm 0 W/m2
07:04 63 °F /  17.2 °C 58.5 °F /  14.7 °C 29.80in /  1009hPa SSW 7.6mph /  12.2km/h 14mph /  22.5km/h 85% 0.00in /  0mm 0 W/m2
07:09 62.9 °F /  17.2 °C 58.5 °F /  14.7 °C 29.80in /  1009hPa SSW 4mph /  6.4km/h 10mph /  16.1km/h 86% 0.00in /  0mm 0 W/m2
07:14 62.8 °F /  17.1 °C 58.5 °F /  14.7 °C 29.80in /  1009hPa SSW 8.2mph /  13.2km/h 15mph /  24.1km/h 86% 0.00in /  0mm 0 W/m2
07:19 62.8 °F /  17.1 °C 58.5 °F /  14.7 °C 29.81in /  1009.4hPa SW 10.4mph /  16.7km/h 18mph /  29km/h 86% 0.00in /  0mm 0 W/m2
07:24 62.8 °F /  17.1 °C 58.5 °F /  14.7 °C 29.81in /  1009.4hPa SW 9.4mph /  15.1km/h 17mph /  27.4km/h 86% 0.00in /  0mm 0 W/m2
07:29 62.5 °F /  16.9 °C 58.2 °F /  14.6 °C 29.82in /  1009.7hPa WSW 10mph /  16.1km/h 18mph /  29km/h 86% 0.00in /  0mm 0 W/m2
07:34 62 °F /  16.7 °C 57.9 °F /  14.4 °C 29.82in /  1009.7hPa SW 8.4mph /  13.5km/h 18mph /  29km/h 86.8% 0.00in /  0mm 0 W/m2
07:39 61.5 °F /  16.4 °C 57.6 °F /  14.2 °C 29.82in /  1009.7hPa SW 11.1mph /  17.9km/h 18mph /  29km/h 87% 0.00in /  0mm 0 W/m2
07:44 61.2 °F /  16.2 °C 57.1 °F /  13.9 °C 29.83in /  1010hPa SW 9.6mph /  15.4km/h 19mph /  30.6km/h 86.2% 0.00in /  0mm 0 W/m2
07:49 61.1 °F /  16.2 °C 56.6 °F /  13.7 °C 29.83in /  1010hPa SW 8.3mph /  13.4km/h 16mph /  25.7km/h 85% 0.00in /  0mm 0 W/m2
07:54 60.8 °F /  16 °C 56.1 °F /  13.4 °C 29.84in /  1010.4hPa WSW 6.5mph /  10.5km/h 17mph /  27.4km/h 84.5% 0.00in /  0mm 0 W/m2
07:59 60.6 °F /  15.9 °C 55.8 °F /  13.2 °C 29.84in /  1010.4hPa SW 6.6mph /  10.6km/h 14mph /  22.5km/h 84% 0.00in /  0mm 0 W/m2
08:04 60.4 °F /  15.8 °C 55.6 °F /  13.1 °C 29.84in /  1010.4hPa SW 8.3mph /  13.4km/h 15mph /  24.1km/h 84% 0.00in /  0mm 0 W/m2
08:09 60.3 °F /  15.7 °C 55.3 °F /  12.9 °C 29.85in /  1010.7hPa WSW 7.2mph /  11.6km/h 13mph /  20.9km/h 83.8% 0.00in /  0mm 5 W/m2
08:14 60.1 °F /  15.6 °C 55 °F /  12.8 °C 29.85in /  1010.7hPa WSW 7.8mph /  12.6km/h 14mph /  22.5km/h 83.2% 0.00in /  0mm 7 W/m2
08:19 59.9 °F /  15.5 °C 54.7 °F /  12.6 °C 29.85in /  1010.7hPa SW 7.6mph /  12.2km/h 12mph /  19.3km/h 83% 0.00in /  0mm 11 W/m2
08:24 59.8 °F /  15.4 °C 54.6 °F /  12.6 °C 29.85in /  1010.7hPa SSW 8.4mph /  13.5km/h 16mph /  25.7km/h 83% 0.00in /  0mm 12 W/m2
08:29 59.7 °F /  15.4 °C 54.5 °F /  12.5 °C 29.85in /  1010.7hPa SSW 8.8mph /  14.2km/h 14mph /  22.5km/h 83% 0.00in /  0mm 18 W/m2
08:34 59.7 °F /  15.4 °C 54.5 °F /  12.5 °C 29.86in /  1011.1hPa SW 8.4mph /  13.5km/h 13mph /  20.9km/h 83% 0.00in /  0mm 19 W/m2
08:39 59.5 °F /  15.3 °C 54.3 °F /  12.4 °C 29.86in /  1011.1hPa SW 5.7mph /  9.2km/h 13mph /  20.9km/h 83% 0.00in /  0mm 23 W/m2
08:44 59.5 °F /  15.3 °C 54.3 °F /  12.4 °C 29.87in /  1011.4hPa SW 6.6mph /  10.6km/h 12mph /  19.3km/h 83% 0.00in /  0mm 39 W/m2
08:49 59.5 °F /  15.3 °C 54.1 °F /  12.3 °C 29.87in /  1011.4hPa SW 8.4mph /  13.5km/h 17mph /  27.4km/h 82.4% 0.00in /  0mm 47 W/m2
08:54 59.5 °F /  15.3 °C 54.1 °F /  12.3 °C 29.87in /  1011.4hPa SW 9.8mph /  15.8km/h 16mph /  25.7km/h 82.2% 0.00in /  0mm 47 W/m2
08:59 59.5 °F /  15.3 °C 54.2 °F /  12.3 °C 29.88in /  1011.7hPa SW 9.2mph /  14.8km/h 17mph /  27.4km/h 82.6% 0.00in /  0mm 44 W/m2
09:04 59.3 °F /  15.2 °C 54.1 °F /  12.3 °C 29.88in /  1011.7hPa SW 8.7mph /  14km/h 20mph /  32.2km/h 83% 0.00in /  0mm 46 W/m2
09:09 59.1 °F /  15.1 °C 54.1 °F /  12.3 °C 29.88in /  1011.7hPa SW 10mph /  16.1km/h 17mph /  27.4km/h 83.8% 0.00in /  0mm 58 W/m2
09:14 58.8 °F /  14.9 °C 54.1 °F /  12.3 °C 29.89in /  1012.1hPa SSW 8mph /  12.9km/h 14mph /  22.5km/h 84.4% 0.00in /  0mm 58 W/m2
09:19 58.8 °F /  14.9 °C 54.3 °F /  12.4 °C 29.89in /  1012.1hPa SW 8.7mph /  14km/h 15mph /  24.1km/h 85% 0.00in /  0mm 53 W/m2
09:24 58.8 °F /  14.9 °C 54.3 °F /  12.4 °C 29.90in /  1012.4hPa WSW 6.4mph /  10.3km/h 13mph /  20.9km/h 85% 0.00in /  0mm 56 W/m2
09:29 58.7 °F /  14.8 °C 54.2 °F /  12.3 °C 29.90in /  1012.4hPa SW 3.7mph /  6km/h 12mph /  19.3km/h 85% 0.00in /  0mm 54 W/m2
09:34 58.6 °F /  14.8 °C 54.1 °F /  12.3 °C 29.90in /  1012.4hPa SW 6mph /  9.7km/h 16mph /  25.7km/h 85% 0.00in /  0mm 53 W/m2
09:39 58.6 °F /  14.8 °C 54.1 °F /  12.3 °C 29.91in /  1012.8hPa WSW 4.8mph /  7.7km/h 10mph /  16.1km/h 85% 0.00in /  0mm 51 W/m2
09:44 58.5 °F /  14.7 °C 54 °F /  12.2 °C 29.91in /  1012.8hPa West 4.8mph /  7.7km/h 10mph /  16.1km/h 85% 0.00in /  0mm 58 W/m2
09:49 58.4 °F /  14.7 °C 53.9 °F /  12.2 °C 29.92in /  1013.1hPa WSW 4mph /  6.4km/h 10mph /  16.1km/h 85% 0.00in /  0mm 65 W/m2
09:54 58.3 °F /  14.6 °C 53.8 °F /  12.1 °C 29.92in /  1013.1hPa West 5.8mph /  9.3km/h 11mph /  17.7km/h 85% 0.00in /  0mm 81 W/m2
09:59 58.3 °F /  14.6 °C 53.8 °F /  12.1 °C 29.92in /  1013.1hPa West 5.5mph /  8.9km/h 12mph /  19.3km/h 85% 0.00in /  0mm 95 W/m2
10:04 58.3 °F /  14.6 °C 53.8 °F /  12.1 °C 29.93in /  1013.4hPa WSW 4.4mph /  7.1km/h 9mph /  14.5km/h 85% 0.00in /  0mm 91 W/m2
10:09 58.3 °F /  14.6 °C 53.8 °F /  12.1 °C 29.93in /  1013.4hPa West 5.2mph /  8.4km/h 11mph /  17.7km/h 85% 0.00in /  0mm 97 W/m2
10:14 58.2 °F /  14.6 °C 53.7 °F /  12.1 °C 29.94in /  1013.8hPa West 4.1mph /  6.6km/h 10mph /  16.1km/h 85% 0.00in /  0mm 137 W/m2
10:19 58.3 °F /  14.6 °C 53.8 °F /  12.1 °C 29.94in /  1013.8hPa West 5.1mph /  8.2km/h 10mph /  16.1km/h 85% 0.00in /  0mm 141 W/m2
10:24 58.3 °F /  14.6 °C 53.4 °F /  11.9 °C 29.94in /  1013.8hPa SW 6.5mph /  10.5km/h 12mph /  19.3km/h 84% 0.00in /  0mm 142 W/m2
10:29 58.3 °F /  14.6 °C 53.4 °F /  11.9 °C 29.94in /  1013.8hPa SW 5.8mph /  9.3km/h 9mph /  14.5km/h 84% 0.00in /  0mm 139 W/m2
10:34 58.3 °F /  14.6 °C 53.2 °F /  11.8 °C 29.94in /  1013.8hPa SW 6.4mph /  10.3km/h 12mph /  19.3km/h 83.2% 0.00in /  0mm 144 W/m2
10:39 58.3 °F /  14.6 °C 53.1 °F /  11.7 °C 29.95in /  1014.1hPa WSW 6.1mph /  9.8km/h 13mph /  20.9km/h 83% 0.00in /  0mm 213 W/m2
10:44 58.5 °F /  14.7 °C 53.2 °F /  11.8 °C 29.95in /  1014.1hPa SW 6mph /  9.7km/h 14mph /  22.5km/h 82.8% 0.00in /  0mm 199 W/m2
10:48 58.6 °F /  14.8 °C 53.2 °F /  11.8 °C 29.96in /  1014.4hPa WSW 6.5mph /  10.5km/h 13mph /  20.9km/h 82% 0.00in /  0mm 250 W/m2
10:54 58.9 °F /  14.9 °C 53.3 °F /  11.8 °C 29.96in /  1014.4hPa WSW 6.8mph /  10.9km/h 13mph /  20.9km/h 81.6% 0.00in /  0mm 251 W/m2
10:59 59.2 °F /  15.1 °C 53.4 °F /  11.9 °C 29.96in /  1014.4hPa WSW 4.8mph /  7.7km/h 13mph /  20.9km/h 81% 0.00in /  0mm 258 W/m2
11:04 59.2 °F /  15.1 °C 53.3 °F /  11.8 °C 29.96in /  1014.4hPa West 7.2mph /  11.6km/h 15mph /  24.1km/h 80.6% 0.00in /  0mm 265 W/m2
11:09 59.4 °F /  15.2 °C 53.2 °F /  11.8 °C 29.96in /  1014.4hPa WSW 6.5mph /  10.5km/h 12mph /  19.3km/h 80% 0.00in /  0mm 267 W/m2
11:14 59.5 °F /  15.3 °C 53.2 °F /  11.8 °C 29.96in /  1014.4hPa WSW 8.2mph /  13.2km/h 13mph /  20.9km/h 79.4% 0.00in /  0mm 264 W/m2
11:19 59.5 °F /  15.3 °C 52.9 °F /  11.6 °C 29.96in /  1014.4hPa WSW 7.6mph /  12.2km/h 14mph /  22.5km/h 78.6% 0.00in /  0mm 264 W/m2
11:24 59.7 °F /  15.4 °C 53 °F /  11.7 °C 29.96in /  1014.4hPa WSW 7.8mph /  12.6km/h 13mph /  20.9km/h 78.2% 0.00in /  0mm 290 W/m2
11:29 59.7 °F /  15.4 °C 52.9 °F /  11.6 °C 29.97in /  1014.8hPa West 6.7mph /  10.8km/h 12mph /  19.3km/h 78% 0.00in /  0mm 316 W/m2
11:34 59.9 °F /  15.5 °C 53.1 °F /  11.7 °C 29.97in /  1014.8hPa West 5.1mph /  8.2km/h 10mph /  16.1km/h 78% 0.00in /  0mm 329 W/m2
11:39 60.3 °F /  15.7 °C 53.1 °F /  11.7 °C 29.97in /  1014.8hPa West 7.4mph /  11.9km/h 16mph /  25.7km/h 77.2% 0.00in /  0mm 345 W/m2
11:44 59.9 °F /  15.5 °C 52.3 °F /  11.3 °C 29.97in /  1014.8hPa West 6.7mph /  10.8km/h 14mph /  22.5km/h 76% 0.00in /  0mm 346 W/m2
11:49 60.4 °F /  15.8 °C 52.8 °F /  11.6 °C 29.98in /  1015.1hPa West 5.2mph /  8.4km/h 10mph /  16.1km/h 76% 0.00in /  0mm 338 W/m2
11:54 60.5 °F /  15.8 °C 52.6 °F /  11.4 °C 29.98in /  1015.1hPa WSW 7mph /  11.3km/h 15mph /  24.1km/h 75% 0.00in /  0mm 338 W/m2
11:59 60.3 °F /  15.7 °C 52 °F /  11.1 °C 29.98in /  1015.1hPa WSW 5.9mph /  9.5km/h 14mph /  22.5km/h 74% 0.00in /  0mm 330 W/m2
12:04 60.3 °F /  15.7 °C 52.1 °F /  11.2 °C 29.98in /  1015.1hPa West 8.4mph /  13.5km/h 12mph /  19.3km/h 74.2% 0.00in /  0mm 250 W/m2
12:08 60.3 °F /  15.7 °C 52.1 °F /  11.2 °C 29.99in /  1015.5hPa WSW 6.6mph /  10.6km/h 15mph /  24.1km/h 74.3% 0.00in /  0mm 330 W/m2
12:14 60.1 °F /  15.6 °C 51.8 °F /  11 °C 29.98in /  1015.1hPa West 9mph /  14.5km/h 18mph /  29km/h 74% 0.00in /  0mm 468 W/m2
12:19 60 °F /  15.6 °C 51.7 °F /  10.9 °C 29.98in /  1015.1hPa West 6mph /  9.7km/h 12mph /  19.3km/h 74% 0.00in /  0mm 508 W/m2
12:24 60.4 °F /  15.8 °C 52.1 °F /  11.2 °C 29.99in /  1015.5hPa West 5.6mph /  9km/h 12mph /  19.3km/h 74% 0.00in /  0mm 432 W/m2
12:29 60.8 °F /  16 °C 52.2 °F /  11.2 °C 29.99in /  1015.5hPa WSW 9mph /  14.5km/h 14mph /  22.5km/h 73.2% 0.00in /  0mm 448 W/m2
12:34 61 °F /  16.1 °C 52.1 °F /  11.2 °C 29.99in /  1015.5hPa WSW 6.2mph /  10km/h 12mph /  19.3km/h 72.2% 0.00in /  0mm 397 W/m2
12:39 61.3 °F /  16.3 °C 52.1 °F /  11.2 °C 29.99in /  1015.5hPa WSW 2.9mph /  4.7km/h 9mph /  14.5km/h 72% 0.00in /  0mm 374 W/m2
12:44 61.8 °F /  16.6 °C 52.6 °F /  11.4 °C 30.00in /  1015.8hPa West 3.3mph /  5.3km/h 8mph /  12.9km/h 72% 0.00in /  0mm 411 W/m2
12:49 61.7 °F /  16.5 °C 52.4 °F /  11.3 °C 30.00in /  1015.8hPa SW 7.6mph /  12.2km/h 15mph /  24.1km/h 71.6% 0.00in /  0mm 411 W/m2
12:54 61.3 °F /  16.3 °C 51.8 °F /  11 °C 30.00in /  1015.8hPa SW 6.7mph /  10.8km/h 13mph /  20.9km/h 71.3% 0.00in /  0mm 338 W/m2
12:59 61.2 °F /  16.2 °C 52 °F /  11.1 °C 30.00in /  1015.8hPa WSW 7.4mph /  11.9km/h 12mph /  19.3km/h 72% 0.00in /  0mm 424 W/m2
13:04 61 °F /  16.1 °C 52.1 °F /  11.2 °C 30.00in /  1015.8hPa West 5.1mph /  8.2km/h 12mph /  19.3km/h 72.2% 0.00in /  0mm 390 W/m2
13:09 61 °F /  16.1 °C 52.3 °F /  11.3 °C 30.00in /  1015.8hPa SW 3.8mph /  6.1km/h 10mph /  16.1km/h 73% 0.00in /  0mm 394 W/m2
13:14 61.2 °F /  16.2 °C 52.5 °F /  11.4 °C 30.00in /  1015.8hPa WSW 5.5mph /  8.9km/h 11mph /  17.7km/h 73% 0.00in /  0mm 415 W/m2
13:19 61.6 °F /  16.4 °C 52.9 °F /  11.6 °C 30.00in /  1015.8hPa SSW 2.4mph /  3.9km/h 7mph /  11.3km/h 73% 0.00in /  0mm 401 W/m2
13:24 62.3 °F /  16.8 °C 53.2 °F /  11.8 °C 30.00in /  1015.8hPa SW 6.5mph /  10.5km/h 11mph /  17.7km/h 72.2% 0.00in /  0mm 512 W/m2
13:29 62.2 °F /  16.8 °C 53 °F /  11.7 °C 30.00in /  1015.8hPa SW 4.1mph /  6.6km/h 12mph /  19.3km/h 72% 0.00in /  0mm 506 W/m2
13:34 62.2 °F /  16.8 °C 53 °F /  11.7 °C 30.00in /  1015.8hPa SW 5.3mph /  8.5km/h 12mph /  19.3km/h 71.8% 0.00in /  0mm 468 W/m2
13:39 62.2 °F /  16.8 °C 52.8 °F /  11.6 °C 30.01in /  1016.1hPa West 9.2mph /  14.8km/h 16mph /  25.7km/h 71.2% 0.01in /  0.25mm 526 W/m2
13:44 62.1 °F /  16.7 °C 52.7 °F /  11.5 °C 30.01in /  1016.1hPa West 6.4mph /  10.3km/h 16mph /  25.7km/h 71.4% 0.01in /  0.25mm 519 W/m2
13:49 62.4 °F /  16.9 °C 52.9 °F /  11.6 °C 30.01in /  1016.1hPa SW 6.6mph /  10.6km/h 13mph /  20.9km/h 71% 0.01in /  0.25mm 538 W/m2
13:54 62.6 °F /  17 °C 53.1 °F /  11.7 °C 30.01in /  1016.1hPa SW 7.6mph /  12.2km/h 13mph /  20.9km/h 71% 0.01in /  0.25mm 494 W/m2
13:59 62.8 °F /  17.1 °C 53.4 °F /  11.9 °C 30.01in /  1016.1hPa SW 10.5mph /  16.9km/h 16mph /  25.7km/h 71.5% 0.01in /  0.25mm 388 W/m2
14:04 62.1 °F /  16.7 °C 52.4 °F /  11.3 °C 30.01in /  1016.1hPa WSW 7.8mph /  12.6km/h 16mph /  25.7km/h 70.4% 0.01in /  0.25mm 327 W/m2
14:09 61.9 °F /  16.6 °C 52.3 °F /  11.3 °C 30.01in /  1016.1hPa WSW 6.4mph /  10.3km/h 16mph /  25.7km/h 71% 0.01in /  0.25mm 290 W/m2
14:14 62.1 °F /  16.7 °C 52.5 °F /  11.4 °C 30.00in /  1015.8hPa WSW 7.2mph /  11.6km/h 13mph /  20.9km/h 71% 0.01in /  0.25mm 325 W/m2
14:19 61.6 °F /  16.4 °C 52.2 °F /  11.2 °C 30.01in /  1016.1hPa SW 7.8mph /  12.6km/h 15mph /  24.1km/h 71.4% 0.01in /  0.25mm 396 W/m2
14:24 61.5 °F /  16.4 °C 52.2 °F /  11.2 °C 30.01in /  1016.1hPa WSW 6.8mph /  10.9km/h 16mph /  25.7km/h 71.6% 0.01in /  0.25mm 343 W/m2
14:29 61.3 °F /  16.3 °C 52.1 °F /  11.2 °C 30.01in /  1016.1hPa SW 6.4mph /  10.3km/h 14mph /  22.5km/h 71.6% 0.01in /  0.25mm 165 W/m2
14:34 61.2 °F /  16.2 °C 52.1 °F /  11.2 °C 30.01in /  1016.1hPa SW 5.4mph /  8.7km/h 13mph /  20.9km/h 72% 0.01in /  0.25mm 146 W/m2
14:39 61.2 °F /  16.2 °C 52.2 °F /  11.2 °C 30.02in /  1016.5hPa WSW 5.8mph /  9.3km/h 13mph /  20.9km/h 72.4% 0.01in /  0.25mm 248 W/m2
14:44 61.5 °F /  16.4 °C 52.5 °F /  11.4 °C 30.02in /  1016.5hPa WSW 5mph /  8km/h 10mph /  16.1km/h 72.4% 0.00in /  0mm 406 W/m2
14:49 62 °F /  16.7 °C 52.9 °F /  11.6 °C 30.02in /  1016.5hPa WSW 4.6mph /  7.4km/h 9mph /  14.5km/h 72% 0.00in /  0mm 255 W/m2
14:54 62 °F /  16.7 °C 52.7 °F /  11.5 °C 30.02in /  1016.5hPa WSW 7.2mph /  11.6km/h 12mph /  19.3km/h 71.6% 0.00in /  0mm 207 W/m2
14:59 61.7 °F /  16.5 °C 52.5 °F /  11.4 °C 30.01in /  1016.1hPa WSW 5.7mph /  9.2km/h 11mph /  17.7km/h 72% 0.00in /  0mm 272 W/m2
15:04 61.7 °F /  16.5 °C 52.5 °F /  11.4 °C 30.01in /  1016.1hPa WSW 5.3mph /  8.5km/h 10mph /  16.1km/h 72% 0.00in /  0mm 272 W/m2
15:09 61.5 °F /  16.4 °C 52.5 °F /  11.4 °C 30.02in /  1016.5hPa SW 3.4mph /  5.5km/h 9mph /  14.5km/h 72.6% 0.00in /  0mm 171 W/m2
15:14 61.9 °F /  16.6 °C 52.8 °F /  11.6 °C 30.02in /  1016.5hPa WSW 6.6mph /  10.6km/h 11mph /  17.7km/h 72.4% 0.00in /  0mm 221 W/m2
15:19 61.9 °F /  16.6 °C 52.7 °F /  11.5 °C 30.02in /  1016.5hPa SW 4.9mph /  7.9km/h 9mph /  14.5km/h 72% 0.00in /  0mm 172 W/m2
15:24 61.7 °F /  16.5 °C 52.2 °F /  11.2 °C 30.02in /  1016.5hPa SW 4.7mph /  7.6km/h 8mph /  12.9km/h 71% 0.00in /  0mm 86 W/m2
15:29 61.4 °F /  16.3 °C 51.9 °F /  11.1 °C 30.02in /  1016.5hPa WSW 5.6mph /  9km/h 9mph /  14.5km/h 71.2% 0.00in /  0mm 255 W/m2
15:34 61.8 °F /  16.6 °C 52.6 °F /  11.4 °C 30.02in /  1016.5hPa WSW 3.7mph /  6km/h 8mph /  12.9km/h 72% 0.00in /  0mm 276 W/m2
15:39 62 °F /  16.7 °C 52.4 °F /  11.3 °C 30.02in /  1016.5hPa West 3.7mph /  6km/h 8mph /  12.9km/h 71% 0.00in /  0mm 146 W/m2
15:44 61.5 °F /  16.4 °C 52 °F /  11.1 °C 30.02in /  1016.5hPa WSW 3.2mph /  5.1km/h 6mph /  9.7km/h 71% 0.00in /  0mm 93 W/m2
15:49 61.5 °F /  16.4 °C 52.3 °F /  11.3 °C 30.02in /  1016.5hPa WSW 2.2mph /  3.5km/h 6mph /  9.7km/h 72% 0.00in /  0mm 132 W/m2
15:54 61.9 °F /  16.6 °C 52.6 °F /  11.4 °C 30.02in /  1016.5hPa WSW 3.6mph /  5.8km/h 7mph /  11.3km/h 71.8% 0.00in /  0mm 186 W/m2
15:59 61.6 °F /  16.4 °C 52.1 °F /  11.2 °C 30.02in /  1016.5hPa SW 5.6mph /  9km/h 12mph /  19.3km/h 71% 0.00in /  0mm 181 W/m2
16:04 61.9 °F /  16.6 °C 52.4 °F /  11.3 °C 30.02in /  1016.5hPa SW 4.4mph /  7.1km/h 7mph /  11.3km/h 71% 0.00in /  0mm 176 W/m2
16:09 62.1 °F /  16.7 °C 52.5 °F /  11.4 °C 30.02in /  1016.5hPa SW 3.5mph /  5.6km/h 7mph /  11.3km/h 71% 0.00in /  0mm 192 W/m2
16:14 62.6 °F /  17 °C 52.9 °F /  11.6 °C 30.02in /  1016.5hPa SW 3.9mph /  6.3km/h 8mph /  12.9km/h 70.6% 0.00in /  0mm 181 W/m2
16:19 62.5 °F /  16.9 °C 52.7 °F /  11.5 °C 30.02in /  1016.5hPa WSW 2.2mph /  3.5km/h 5mph /  8km/h 70.3% 0.00in /  0mm 98 W/m2
16:24 62.2 °F /  16.8 °C 52.7 °F /  11.5 °C 30.03in /  1016.8hPa SSW 2.9mph /  4.7km/h 8mph /  12.9km/h 71.2% 0.00in /  0mm 148 W/m2
16:29 61.8 °F /  16.6 °C 52.6 °F /  11.4 °C 30.02in /  1016.5hPa SSW 3.7mph /  6km/h 10mph /  16.1km/h 72% 0.00in /  0mm 118 W/m2
16:34 61.3 °F /  16.3 °C 52.7 °F /  11.5 °C 30.02in /  1016.5hPa SSW 3.7mph /  6km/h 8mph /  12.9km/h 73% 0.00in /  0mm 60 W/m2
16:39 61.2 °F /  16.2 °C 52.9 °F /  11.6 °C 30.03in /  1016.8hPa South 2.9mph /  4.7km/h 8mph /  12.9km/h 74% 0.00in /  0mm 77 W/m2
16:44 61.2 °F /  16.2 °C 53 °F /  11.7 °C 30.03in /  1016.8hPa SSE 2.4mph /  3.9km/h 8mph /  12.9km/h 74.2% 0.00in /  0mm 95 W/m2
16:49 61.4 °F /  16.3 °C 53.5 °F /  11.9 °C 30.03in /  1016.8hPa South 4mph /  6.4km/h 9mph /  14.5km/h 75% 0.00in /  0mm 104 W/m2
16:54 61.3 °F /  16.3 °C 53.4 °F /  11.9 °C 30.03in /  1016.8hPa South 3.3mph /  5.3km/h 7mph /  11.3km/h 75% 0.00in /  0mm 58 W/m2
16:59 61.2 °F /  16.2 °C 53.4 °F /  11.9 °C 30.03in /  1016.8hPa SSW 3.1mph /  5km/h 10mph /  16.1km/h 75.6% 0.00in /  0mm 62 W/m2
17:04 61.1 °F /  16.2 °C 53.5 °F /  11.9 °C 30.03in /  1016.8hPa South 4mph /  6.4km/h 10mph /  16.1km/h 76% 0.00in /  0mm 51 W/m2
17:09 61 °F /  16.1 °C 53.8 °F /  12.1 °C 30.03in /  1016.8hPa South 2.1mph /  3.4km/h 5mph /  8km/h 77% 0.00in /  0mm 33 W/m2
17:14 60.8 °F /  16 °C 53.6 °F /  12 °C 30.03in /  1016.8hPa South 4.4mph /  7.1km/h 8mph /  12.9km/h 77% 0.00in /  0mm 33 W/m2
17:19 60.5 °F /  15.8 °C 53.4 °F /  11.9 °C 30.03in /  1016.8hPa South 6.6mph /  10.6km/h 14mph /  22.5km/h 77.4% 0.00in /  0mm 23 W/m2
17:24 60.2 °F /  15.7 °C 53.3 °F /  11.8 °C 30.04in /  1017.2hPa South 4mph /  6.4km/h 11mph /  17.7km/h 78% 0.00in /  0mm 16 W/m2
17:29 60 °F /  15.6 °C 53.2 °F /  11.8 °C 30.04in /  1017.2hPa SSE 6.5mph /  10.5km/h 11mph /  17.7km/h 78.2% 0.00in /  0mm 11 W/m2
17:34 59.6 °F /  15.3 °C 53.1 °F /  11.7 °C 30.04in /  1017.2hPa South 5.5mph /  8.9km/h 10mph /  16.1km/h 79% 0.00in /  0mm 9 W/m2
17:39 59.5 °F /  15.3 °C 53.2 °F /  11.8 °C 30.04in /  1017.2hPa South 3mph /  4.8km/h 10mph /  16.1km/h 79.5% 0.00in /  0mm 7 W/m2
17:44 59.3 °F /  15.2 °C 53.1 °F /  11.7 °C 30.04in /  1017.2hPa South 3.3mph /  5.3km/h 8mph /  12.9km/h 80% 0.00in /  0mm 5 W/m2
17:49 59.1 °F /  15.1 °C 53.2 °F /  11.8 °C 30.04in /  1017.2hPa South 2.9mph /  4.7km/h 7mph /  11.3km/h 80.6% 0.00in /  0mm 5 W/m2
17:54 58.8 °F /  14.9 °C 53.1 °F /  11.7 °C 30.04in /  1017.2hPa South 3.6mph /  5.8km/h 6mph /  9.7km/h 81% 0.00in /  0mm 0 W/m2
17:59 58.6 °F /  14.8 °C 53.1 °F /  11.7 °C 30.04in /  1017.2hPa South 2.2mph /  3.5km/h 5mph /  8km/h 81.6% 0.00in /  0mm 0 W/m2
18:04 58.5 °F /  14.7 °C 53.1 °F /  11.7 °C 30.04in /  1017.2hPa South 1.4mph /  2.3km/h 7mph /  11.3km/h 82% 0.00in /  0mm 0 W/m2
18:09 58.3 °F /  14.6 °C 52.9 °F /  11.6 °C 30.04in /  1017.2hPa South 3.7mph /  6km/h 8mph /  12.9km/h 82% 0.00in /  0mm 0 W/m2
18:14 58.2 °F /  14.6 °C 53 °F /  11.7 °C 30.04in /  1017.2hPa South 3.1mph /  5km/h 8mph /  12.9km/h 82.8% 0.00in /  0mm 0 W/m2
18:19 57.9 °F /  14.4 °C 52.7 °F /  11.5 °C 30.04in /  1017.2hPa South 2.5mph /  4km/h 7mph /  11.3km/h 83% 0.00in /  0mm 0 W/m2
18:24 57.8 °F /  14.3 °C 52.7 °F /  11.5 °C 30.04in /  1017.2hPa SSE 3.3mph /  5.3km/h 9mph /  14.5km/h 83% 0.00in /  0mm 0 W/m2
18:29 57.7 °F /  14.3 °C 52.7 °F /  11.5 °C 30.05in /  1017.5hPa SSE 3.8mph /  6.1km/h 9mph /  14.5km/h 83% 0.00in /  0mm 0 W/m2
18:34 57.7 °F /  14.3 °C 52.7 °F /  11.5 °C 30.05in /  1017.5hPa SSE 3.5mph /  5.6km/h 9mph /  14.5km/h 83.2% 0.00in /  0mm 0 W/m2
18:39 57.6 °F /  14.2 °C 52.8 °F /  11.6 °C 30.05in /  1017.5hPa SSE 2.9mph /  4.7km/h 9mph /  14.5km/h 84% 0.00in /  0mm 0 W/m2
18:44 57.5 °F /  14.2 °C 52.6 °F /  11.4 °C 30.05in /  1017.5hPa South 3.4mph /  5.5km/h 7mph /  11.3km/h 84% 0.00in /  0mm 0 W/m2
18:49 57.3 °F /  14.1 °C 52.5 °F /  11.4 °C 30.05in /  1017.5hPa SSE 4mph /  6.4km/h 7mph /  11.3km/h 84% 0.00in /  0mm 0 W/m2
18:54 57.1 °F /  13.9 °C 52.3 °F /  11.3 °C 30.05in /  1017.5hPa SSE 6.1mph /  9.8km/h 10mph /  16.1km/h 84.2% 0.00in /  0mm 0 W/m2
18:59 57 °F /  13.9 °C 52.5 °F /  11.4 °C 30.05in /  1017.5hPa SSE 4.3mph /  6.9km/h 10mph /  16.1km/h 85% 0.00in /  0mm 0 W/m2
19:04 56.8 °F /  13.8 °C 52.3 °F /  11.3 °C 30.05in /  1017.5hPa South 4.8mph /  7.7km/h 13mph /  20.9km/h 85% 0.00in /  0mm 0 W/m2
19:09 56.8 °F /  13.8 °C 52.3 °F /  11.3 °C 30.05in /  1017.5hPa SSE 4.4mph /  7.1km/h 9mph /  14.5km/h 85% 0.00in /  0mm 0 W/m2
19:14 56.7 °F /  13.7 °C 52.4 °F /  11.3 °C 30.05in /  1017.5hPa SSE 3.7mph /  6km/h 11mph /  17.7km/h 85.4% 0.00in /  0mm 0 W/m2
19:19 56.7 °F /  13.7 °C 52.5 °F /  11.4 °C 30.05in /  1017.5hPa South 2.4mph /  3.9km/h 7mph /  11.3km/h 86% 0.00in /  0mm 0 W/m2
19:24 56.5 °F /  13.6 °C 52.3 °F /  11.3 °C 30.05in /  1017.5hPa SSE 4mph /  6.4km/h 9mph /  14.5km/h 86% 0.00in /  0mm 0 W/m2
19:28 56.5 °F /  13.6 °C 52.3 °F /  11.3 °C 30.06in /  1017.8hPa SSE 3mph /  4.8km/h 7mph /  11.3km/h 86% 0.00in /  0mm 0 W/m2
19:34 56.4 °F /  13.6 °C 52.2 °F /  11.2 °C 30.06in /  1017.8hPa South 4.5mph /  7.2km/h 7mph /  11.3km/h 86% 0.00in /  0mm 0 W/m2
19:39 56.2 °F /  13.4 °C 52.1 °F /  11.2 °C 30.06in /  1017.8hPa SSW 2.1mph /  3.4km/h 6mph /  9.7km/h 86.2% 0.00in /  0mm 0 W/m2
19:44 56.1 °F /  13.4 °C 52.3 °F /  11.3 °C 30.06in /  1017.8hPa South 1.2mph /  1.9km/h 5mph /  8km/h 87% 0.00in /  0mm 0 W/m2
19:49 56 °F /  13.3 °C 52.2 °F /  11.2 °C 30.06in /  1017.8hPa South 2.1mph /  3.4km/h 5mph /  8km/h 87% 0.00in /  0mm 0 W/m2
19:54 55.9 °F /  13.3 °C 52.2 °F /  11.2 °C 30.06in /  1017.8hPa South 1.1mph /  1.8km/h 5mph /  8km/h 87% 0.00in /  0mm 0 W/m2
19:59 55.9 °F /  13.3 °C 52.2 °F /  11.2 °C 30.06in /  1017.8hPa South 1.6mph /  2.6km/h 3mph /  4.8km/h 87% 0.00in /  0mm 0 W/m2
20:04 55.9 °F /  13.3 °C 52.3 °F /  11.3 °C 30.06in /  1017.8hPa South 1.4mph /  2.3km/h 5mph /  8km/h 87.2% 0.00in /  0mm 0 W/m2
20:09 55.9 °F /  13.3 °C 52.3 °F /  11.3 °C 30.07in /  1018.2hPa South 2.4mph /  3.9km/h 6mph /  9.7km/h 87.4% 0.00in /  0mm 0 W/m2
20:14 55.9 °F /  13.3 °C 52.4 °F /  11.3 °C 30.07in /  1018.2hPa SSE 2.1mph /  3.4km/h 5mph /  8km/h 87.8% 0.00in /  0mm 0 W/m2
20:18 55.8 °F /  13.2 °C 52.3 °F /  11.3 °C 30.06in /  1017.8hPa SSE 1mph /  1.6km/h 4mph /  6.4km/h 88% 0.00in /  0mm 0 W/m2
20:24 55.8 °F /  13.2 °C 52.3 °F /  11.3 °C 30.07in /  1018.2hPa SSE 0.5mph /  0.8km/h 2mph /  3.2km/h 88% 0.00in /  0mm 0 W/m2
20:29 55.6 °F /  13.1 °C 52.2 °F /  11.2 °C 30.06in /  1017.8hPa SSE 0.2mph /  0.3km/h 4mph /  6.4km/h 88% 0.00in /  0mm 0 W/m2
20:34 55.6 °F /  13.1 °C 52.2 °F /  11.2 °C 30.07in /  1018.2hPa SSE 0.8mph /  1.3km/h 3mph /  4.8km/h 88% 0.00in /  0mm 0 W/m2
20:39 55.5 °F /  13.1 °C 52.1 °F /  11.2 °C 30.06in /  1017.8hPa SE 0.4mph /  0.6km/h 2mph /  3.2km/h 88% 0.00in /  0mm 0 W/m2
20:44 55.3 °F /  12.9 °C 51.9 °F /  11.1 °C 30.06in /  1017.8hPa SE 0.6mph /  1km/h 4mph /  6.4km/h 88% 0.00in /  0mm 0 W/m2
20:49 55.2 °F /  12.9 °C 51.8 °F /  11 °C 30.06in /  1017.8hPa SE 0.6mph /  1km/h 4mph /  6.4km/h 88% 0.00in /  0mm 0 W/m2
20:54 55.4 °F /  13 °C 52 °F /  11.1 °C 30.06in /  1017.8hPa SE 2.1mph /  3.4km/h 5mph /  8km/h 88% 0.00in /  0mm 0 W/m2
20:59 55.3 °F /  12.9 °C 52.1 °F /  11.2 °C 30.06in /  1017.8hPa SSE 0.4mph /  0.6km/h 2mph /  3.2km/h 89% 0.00in /  0mm 0 W/m2
21:04 55 °F /  12.8 °C 51.8 °F /  11 °C 30.06in /  1017.8hPa Calm   2mph /  3.2km/h 89% 0.00in /  0mm 0 W/m2
21:09 55 °F /  12.8 °C 51.8 °F /  11 °C 30.06in /  1017.8hPa SSE 0.8mph /  1.3km/h 3mph /  4.8km/h 89% 0.00in /  0mm 0 W/m2
21:14 54.9 °F /  12.7 °C 51.6 °F /  10.9 °C 30.07in /  1018.2hPa SSE 0.2mph /  0.3km/h 2mph /  3.2km/h 89% 0.00in /  0mm 0 W/m2
21:19 54.8 °F /  12.7 °C 51.5 °F /  10.8 °C 30.07in /  1018.2hPa SSE 0.2mph /  0.3km/h 2mph /  3.2km/h 89% 0.00in /  0mm 0 W/m2
21:24 54.7 °F /  12.6 °C 51.4 °F /  10.8 °C 30.07in /  1018.2hPa SSE 2.1mph /  3.4km/h 5mph /  8km/h 89% 0.00in /  0mm 0 W/m2
21:29 54.9 °F /  12.7 °C 51.6 °F /  10.9 °C 30.07in /  1018.2hPa SSE 1.2mph /  1.9km/h 5mph /  8km/h 89% 0.00in /  0mm 0 W/m2
21:34 54.8 °F /  12.7 °C 51.5 °F /  10.8 °C 30.07in /  1018.2hPa SSE 0.2mph /  0.3km/h 2mph /  3.2km/h 89% 0.00in /  0mm 0 W/m2
21:39 54.8 °F /  12.7 °C 51.7 °F /  10.9 °C 30.07in /  1018.2hPa SSE 1mph /  1.6km/h 4mph /  6.4km/h 89.4% 0.00in /  0mm 0 W/m2
21:44 54.8 °F /  12.7 °C 51.9 °F /  11.1 °C 30.07in /  1018.2hPa SSE 1.2mph /  1.9km/h 2mph /  3.2km/h 90% 0.00in /  0mm 0 W/m2
21:49 54.6 °F /  12.6 °C 51.7 °F /  10.9 °C 30.08in /  1018.5hPa SSE 0.8mph /  1.3km/h 3mph /  4.8km/h 90% 0.00in /  0mm 0 W/m2
21:54 54.3 °F /  12.4 °C 51.4 °F /  10.8 °C 30.08in /  1018.5hPa SE 2mph /  3.2km/h 3mph /  4.8km/h 90% 0.00in /  0mm 0 W/m2
21:59 54.1 °F /  12.3 °C 51.3 °F /  10.7 °C 30.07in /  1018.2hPa ENE 2.4mph /  3.9km/h 5mph /  8km/h 90% 0.00in /  0mm 0 W/m2
22:04 54 °F /  12.2 °C 51.1 °F /  10.6 °C 30.07in /  1018.2hPa ENE 2mph /  3.2km/h 5mph /  8km/h 90% 0.00in /  0mm 0 W/m2
22:09 54.2 °F /  12.3 °C 51.3 °F /  10.7 °C 30.07in /  1018.2hPa ENE 1.6mph /  2.6km/h 5mph /  8km/h 90% 0.00in /  0mm 0 W/m2
22:14 54.4 °F /  12.4 °C 51.8 °F /  11 °C 30.07in /  1018.2hPa ENE 0.4mph /  0.6km/h 3mph /  4.8km/h 90.8% 0.00in /  0mm 0 W/m2
22:19 54.6 °F /  12.6 °C 52.1 °F /  11.2 °C 30.07in /  1018.2hPa ENE 1.5mph /  2.4km/h 5mph /  8km/h 91% 0.00in /  0mm 0 W/m2
22:24 55 °F /  12.8 °C 52.4 °F /  11.3 °C 30.07in /  1018.2hPa ENE 1.3mph /  2.1km/h 3mph /  4.8km/h 91% 0.00in /  0mm 0 W/m2
22:29 55.3 °F /  12.9 °C 52.8 °F /  11.6 °C 30.06in /  1017.8hPa ENE 1.2mph /  1.9km/h 3mph /  4.8km/h 91% 0.00in /  0mm 0 W/m2
22:34 55.3 °F /  12.9 °C 52.8 °F /  11.6 °C 30.06in /  1017.8hPa ENE 0.8mph /  1.3km/h 3mph /  4.8km/h 91% 0.00in /  0mm 0 W/m2
22:39 55.4 °F /  13 °C 52.9 °F /  11.6 °C 30.06in /  1017.8hPa ENE 1.7mph /  2.7km/h 3mph /  4.8km/h 91% 0.00in /  0mm 0 W/m2
22:44 55.4 °F /  13 °C 52.9 °F /  11.6 °C 30.06in /  1017.8hPa ENE 1.2mph /  1.9km/h 3mph /  4.8km/h 91% 0.00in /  0mm 0 W/m2
22:49 55.4 °F /  13 °C 52.9 °F /  11.6 °C 30.06in /  1017.8hPa ENE 2.4mph /  3.9km/h 6mph /  9.7km/h 91% 0.00in /  0mm 0 W/m2
22:54 55 °F /  12.8 °C 52.5 °F /  11.4 °C 30.06in /  1017.8hPa East 2.2mph /  3.5km/h 6mph /  9.7km/h 91% 0.00in /  0mm 0 W/m2
22:59 54.8 °F /  12.7 °C 52.2 °F /  11.2 °C 30.06in /  1017.8hPa ESE 2.1mph /  3.4km/h 5mph /  8km/h 91% 0.00in /  0mm 0 W/m2
23:04 54.7 °F /  12.6 °C 52.2 °F /  11.2 °C 30.06in /  1017.8hPa ESE 1.2mph /  1.9km/h 4mph /  6.4km/h 91% 0.00in /  0mm 0 W/m2
23:09 54.6 °F /  12.6 °C 52.1 °F /  11.2 °C 30.07in /  1018.2hPa East 2.1mph /  3.4km/h 4mph /  6.4km/h 91% 0.00in /  0mm 0 W/m2
23:14 54.4 °F /  12.4 °C 51.9 °F /  11.1 °C 30.06in /  1017.8hPa ENE 1.9mph /  3.1km/h 6mph /  9.7km/h 91% 0.00in /  0mm 0 W/m2
23:19 54.3 °F /  12.4 °C 51.8 °F /  11 °C 30.06in /  1017.8hPa ENE 1mph /  1.6km/h 10mph /  16.1km/h 91% 0.00in /  0mm 0 W/m2
23:24 54.3 °F /  12.4 °C 51.8 °F /  11 °C 30.06in /  1017.8hPa East 1.7mph /  2.7km/h 5mph /  8km/h 91% 0.00in /  0mm 0 W/m2
23:29 54.4 °F /  12.4 °C 51.9 °F /  11.1 °C 30.06in /  1017.8hPa East 1.7mph /  2.7km/h 4mph /  6.4km/h 91% 0.00in /  0mm 0 W/m2
23:34 54.4 °F /  12.4 °C 51.9 °F /  11.1 °C 30.06in /  1017.8hPa East 2.7mph /  4.3km/h 5mph /  8km/h 91% 0.00in /  0mm 0 W/m2
23:39 54.4 °F /  12.4 °C 51.9 °F /  11.1 °C 30.06in /  1017.8hPa East 2.3mph /  3.7km/h 6mph /  9.7km/h 91% 0.00in /  0mm 0 W/m2
23:44 54.3 °F /  12.4 °C 51.8 °F /  11 °C 30.05in /  1017.5hPa East 3.1mph /  5km/h 7mph /  11.3km/h 91% 0.00in /  0mm 0 W/m2
23:49 54.4 °F /  12.4 °C 51.9 °F /  11.1 °C 30.05in /  1017.5hPa East 2.5mph /  4km/h 7mph /  11.3km/h 91% 0.00in /  0mm 0 W/m2
23:54 54.5 °F /  12.5 °C 52 °F /  11.1 °C 30.05in /  1017.5hPa ESE 2.4mph /  3.9km/h 6mph /  9.7km/h 91% 0.00in /  0mm 0 W/m2
23:59 54.5 °F /  12.5 °C 52 °F /  11.1 °C 30.05in /  1017.5hPa East 2.8mph /  4.5km/h 7mph /  11.3km/h 91% 0.00in /  0mm 0 W/m2
Bath Spa Weather
Compliments of Weather Underground - 2 mb